METAR AND TAF INFORMATION
METAR FOR LTAC
ADDS - METARS form results

(1619 UTC 25 May 2018)
Data provider http://aviationweather.gov/adds/metars/
 
METAR text: LTAC 251550Z 34008KT 9999 -TSRA SCT025CB BKN030 16/12 Q1010 RETSGRRA BECMG TL1650 NSW
Conditions at: LTAC (ANKARA/ESENBOGA , TR) observed 1550 UTC 25 May 2018
Temperature: 16.0°C (61°F)
Dewpoint: 12.0°C (54°F) [RH = 77%]
Pressure (altimeter): 29.82 inches Hg (1010.0 mb)
Winds: from the NNW (340 degrees) at 9 MPH (8 knots; 4.2 m/s)
Visibility: 6 or more miles (10+ km)
Ceiling: 3000 feet AGL
Clouds: scattered clouds at 2500 feet AGL
broken clouds at 3000 feet AGL
Weather: -TSRA  (light rain associated with thunderstorm(s))

METAR text: LTAC 251533Z 05011KT 6000 TSGRRA SCT025CB BKN030 18/12 Q1010 BECMG TL1630 NSW RMK RWY21L 06008KT 020V090 RWY03L 05012KT 350V080 RWY21R VRB08KT
Conditions at: LTAC (ANKARA/ESENBOGA , TR) observed 1533 UTC 25 May 2018
Temperature: 18.0°C (64°F)
Dewpoint: 12.0°C (54°F) [RH = 68%]
Pressure (altimeter): 29.82 inches Hg (1010.0 mb)
Winds: from the NE (50 degrees) at 13 MPH (11 knots; 5.7 m/s)
Visibility: 4 miles (6 km)
Ceiling: 3000 feet AGL
Clouds: scattered clouds at 2500 feet AGL
broken clouds at 3000 feet AGL
Weather: TSGR TSRA  (hail associated with thunderstorm(s), rain associated with thunderstorm(s))

METAR text: LTAC 251520Z 31009KT 9999 SCT030CB BKN035 18/11 Q1010 TEMPO 03015G25KT -TSRA RMK RWY21L 29008KT 260V010 RWY03L 29008KT 250V340 RWY21R 30010G20KT 260V350
Conditions at: LTAC (ANKARA/ESENBOGA , TR) observed 1520 UTC 25 May 2018
Temperature: 18.0°C (64°F)
Dewpoint: 11.0°C (52°F) [RH = 64%]
Pressure (altimeter): 29.82 inches Hg (1010.0 mb)
Winds: from the NW (310 degrees) at 10 MPH (9 knots; 4.7 m/s)
Visibility: 6 or more miles (10+ km)
Ceiling: 3500 feet AGL
Clouds: scattered clouds at 3000 feet AGL
broken clouds at 3500 feet AGL
Weather: no significant weather observed at this time

Forecast for: LTAC (ANKARA/ESENBOGA , TR)
Text: TAF LTAC 251040Z 2512/2612 VRB02KT 9999 SCT040
Forecast period: 1200 UTC 25 May 2018 to 1200 UTC 26 May 2018
Forecast type: FROM: standard forecast or significant change
Winds: variable direction winds at 2 MPH (2 knots; 1.0 m/s)
Visibility: 6 or more miles (10+ km)
Clouds: scattered clouds at 4000 feet AGL
Weather: no significant weather forecast for this period
Text: PROB40
Forecast period: 1500 to 1900 UTC 25 May 2018
Forecast type: TEMPORARY: The following changes expected for less than half the time period
Winds: from the NNE (30 degrees) at 17 MPH (15 knots; 7.8 m/s)
gusting to 29 MPH (25 knots; 13.0 m/s)
Ceiling: 3000 feet AGL
Clouds: few clouds at 2500 feet AGL
broken clouds at 3000 feet AGL
Weather: -TSRA  (light rain associated with thunderstorm(s))

 AIRPORT MAP

 RUNWAY INFORMATION
Runway 03L Runway length 12303 ft Runway width 148 ft
Runway elevation 3100 ft Runway displaced threshold 1148 ft Runway heading 36
Runway 21R Runway length 12303 ft Runway width 148 ft
Runway elevation 3123 ft Runway displaced threshold 0 ft Runway heading 216
Runway 03R Runway length 12303 ft Runway width 197 ft
Runway elevation 3097 ft Runway displaced threshold 0 ft Runway heading 35
Runway 21L Runway length 12303 ft Runway width 197 ft
Runway elevation 3125 ft Runway displaced threshold 0 ft Runway heading 215

 AIRPORT FREQUENCIES
Type APP Name APP Frequency 119.1 MHZ
Type ATIS Name ATIS Frequency 123.6 MHZ
Type GND Name GND Frequency 121.9 MHZ
Type TWR Name TWR Frequency 118.1 MHZ

 AIRPORT NEAR NAVIGATION AIDS
Type VOR-DME Name Cubuk Frequency 114300 KHZ